ハバロフスク の空港の天気 - METARとTAF

ハバロフスク空港 ( UHHH / KHV ) - ロシア ハバロフスク
飛行場実況気象(Metar)
観測時間02/18 09:00 VLAT (02/17 23:00 UTC)
風向・風速西 7m/s
視程10km以上
天気現象
なし
気温-8℃
湿度53%
気圧1013hPa
METARUHHH 172300Z 27007MPS CAVOK M08/M16 Q1013 R23L/090060 NOSIG RMK QFE753/1005
過去の天気等 Google飛行場航空写真 Wunderground天気予報

過去48時間のMETAR

飛行場予報(TAF)
発表時間: 2/18 05:51 VLAT (2/17 19:51 UTC)
予報対象時間: 18日7時 VLAT ~ 19日13時 VLAT
風向・風速西 6m/s
視程10km以上
なし
18日7時 VLAT ~ 18日16時 VLAT に一時的に
風向・風速西南西 6m/s 瞬間風速 11m/s
全天の4割程度の雲 雲底高度 610m
18日19時 VLAT ~ 19日4時 VLAT に一時的に
風向・風速南西 3m/s
TAF UHHH 171951Z 1721/1903 26006MPS 9999 NSC
TEMPO 1721/1806 25006G11MPS SCT020
TEMPO 1809/1818 23003MPS